Time;durP1;ratioP1;P1;durP2;ratioP2;P2;SDS_P1;SDS_P2;PMS_P1;PMS_P2;Temp;Humidity;BMP_temperature;BMP_pressure;BME280_temperature;BME280_humidity;BME280_pressure;Samples;Min_cycle;Max_cycle;Signal;HPM_P1;HPM_P2
2021/04/07 00:01:47;;;;;;;13.20;7.77;;;1.00;99.90;;;;;;4981640;28;20632;-76
2021/04/07 00:04:13;;;;;;;17.00;8.40;;;1.00;99.90;;;;;;5015207;28;20696;-76
2021/04/07 00:06:40;;;;;;;13.77;8.13;;;1.00;99.90;;;;;;4972294;28;20643;-76
2021/04/07 00:09:07;;;;;;;9.87;7.60;;;0.90;99.90;;;;;;4990529;28;20207;-77
2021/04/07 00:11:33;;;;;;;21.17;8.13;;;1.00;99.90;;;;;;4977697;28;20450;-76
2021/04/07 00:14:00;;;;;;;11.67;7.83;;;1.00;99.90;;;;;;4978667;28;20443;-76
2021/04/07 00:16:26;;;;;;;11.67;7.67;;;0.90;99.90;;;;;;4977909;28;20189;-75
2021/04/07 00:18:51;;;;;;;13.73;7.93;;;0.90;99.90;;;;;;4973557;28;20963;-76
2021/04/07 00:21:17;;;;;;;13.33;8.70;;;1.00;99.90;;;;;;4983073;28;20452;-76
2021/04/07 00:23:43;;;;;;;9.60;6.83;;;1.00;99.90;;;;;;4981550;28;20186;-75
2021/04/07 00:26:09;;;;;;;10.80;6.20;;;1.00;99.90;;;;;;4988648;28;20193;-76
2021/04/07 00:28:34;;;;;;;9.40;6.33;;;1.00;99.90;;;;;;4974287;28;20574;-76
2021/04/07 00:31:00;;;;;;;9.27;5.97;;;1.00;99.90;;;;;;4978895;28;20189;-77
2021/04/07 00:33:26;;;;;;;8.73;5.83;;;1.00;99.90;;;;;;4980128;28;20259;-76
2021/04/07 00:35:51;;;;;;;12.80;6.30;;;1.00;99.90;;;;;;4984120;28;20519;-76
2021/04/07 00:38:17;;;;;;;9.17;6.20;;;1.00;99.90;;;;;;5010269;28;20615;-76
2021/04/07 00:40:43;;;;;;;7.77;5.80;;;1.00;99.90;;;;;;4975865;28;20196;-75
2021/04/07 00:43:09;;;;;;;13.93;7.07;;;1.00;99.90;;;;;;4986623;28;20263;-75
2021/04/07 00:45:34;;;;;;;9.07;5.90;;;1.00;99.90;;;;;;4990980;28;20462;-76
2021/04/07 00:48:00;;;;;;;8.40;5.90;;;1.00;99.90;;;;;;4991960;28;20195;-75
2021/04/07 00:50:28;;;;;;;14.93;6.63;;;0.90;99.90;;;;;;4994577;28;20221;-75
2021/04/07 00:52:54;;;;;;;17.03;7.00;;;0.90;99.90;;;;;;5013167;28;20413;-75
2021/04/07 00:55:29;;;;;;;21.67;6.30;;;0.80;99.90;;;;;;4980059;28;20450;-75
2021/04/07 00:57:55;;;;;;;14.50;6.70;;;0.80;99.90;;;;;;4984360;28;20507;-75
2021/04/07 01:00:22;;;;;;;16.10;6.60;;;0.70;99.90;;;;;;4987535;28;20481;-76
2021/04/07 01:02:55;;;;;;;7.90;6.00;;;0.70;99.90;;;;;;4987766;28;20778;-75
2021/04/07 01:05:22;;;;;;;15.43;6.60;;;0.60;99.90;;;;;;4988138;28;20501;-76
2021/04/07 01:07:47;;;;;;;11.17;6.00;;;0.70;99.90;;;;;;4983850;28;20465;-75
2021/04/07 01:10:13;;;;;;;8.83;6.00;;;0.70;99.90;;;;;;4982761;28;20483;-76
2021/04/07 01:12:40;;;;;;;7.53;4.80;;;0.70;99.90;;;;;;4979646;28;20269;-76
2021/04/07 01:15:07;;;;;;;8.33;4.70;;;0.70;99.90;;;;;;4990264;28;20426;-75
2021/04/07 01:17:33;;;;;;;13.03;5.73;;;0.80;99.90;;;;;;4984840;28;20471;-76
2021/04/07 01:20:00;;;;;;;8.23;5.00;;;0.80;99.90;;;;;;4976074;28;20542;-76
2021/04/07 01:22:31;;;;;;;8.63;5.10;;;0.80;99.90;;;;;;4976487;28;20796;-76
2021/04/07 01:24:57;;;;;;;7.50;5.00;;;0.80;99.90;;;;;;4976269;28;20435;-75
2021/04/07 01:27:22;;;;;;;8.07;5.27;;;0.80;99.90;;;;;;4975894;28;20929;-75
2021/04/07 01:29:48;;;;;;;6.20;5.00;;;0.80;99.90;;;;;;4991330;28;20469;-73
2021/04/07 01:32:14;;;;;;;8.50;5.90;;;0.90;99.90;;;;;;4981423;28;20181;-75
2021/04/07 01:34:44;;;;;;;8.53;5.17;;;0.80;99.90;;;;;;4976908;28;20435;-76
2021/04/07 01:37:12;;;;;;;17.40;5.43;;;0.90;99.90;;;;;;4979310;28;20175;-75
2021/04/07 01:39:37;;;;;;;6.47;5.50;;;0.90;99.90;;;;;;4975406;28;20456;-76
2021/04/07 01:42:03;;;;;;;9.20;5.23;;;0.80;99.90;;;;;;4975743;28;20432;-76
2021/04/07 01:44:30;;;;;;;9.70;5.83;;;0.80;99.90;;;;;;4977198;28;20177;-75
2021/04/07 01:46:56;;;;;;;7.87;5.80;;;0.90;99.90;;;;;;4980542;28;20181;-75
2021/04/07 01:49:24;;;;;;;12.87;6.13;;;0.90;99.90;;;;;;4982111;28;20465;-76
2021/04/07 01:51:49;;;;;;;17.63;5.80;;;0.90;99.90;;;;;;4989605;28;20456;-77
2021/04/07 01:54:15;;;;;;;14.20;5.73;;;1.00;99.90;;;;;;4980756;28;20522;-77
2021/04/07 01:56:57;;;;;;;10.47;5.63;;;1.00;99.90;;;;;;4981921;28;20661;-77
2021/04/07 01:59:29;;;;;;;11.90;5.57;;;1.00;99.90;;;;;;4977742;28;20596;-77
2021/04/07 02:01:55;;;;;;;7.40;5.60;;;1.00;99.90;;;;;;4983174;28;20429;-76
2021/04/07 02:04:22;;;;;;;13.40;5.93;;;1.00;99.90;;;;;;4974052;28;20906;-76
2021/04/07 02:06:48;;;;;;;9.13;5.20;;;1.00;99.90;;;;;;4976245;28;20442;-75
2021/04/07 02:09:16;;;;;;;8.20;5.43;;;1.00;99.90;;;;;;5004962;28;20544;-76
2021/04/07 02:11:42;;;;;;;13.00;5.27;;;0.90;99.90;;;;;;4976679;28;20458;-76
2021/04/07 02:14:12;;;;;;;9.43;5.33;;;0.90;99.90;;;;;;5011414;28;20435;-77
2021/04/07 02:16:38;;;;;;;8.07;6.10;;;0.80;99.90;;;;;;4980942;28;20774;-77
2021/04/07 02:19:08;;;;;;;10.83;5.20;;;0.90;99.90;;;;;;4986780;28;20438;-77
2021/04/07 02:21:35;;;;;;;15.40;7.43;;;0.90;99.90;;;;;;4984828;28;20693;-77
2021/04/07 02:24:00;;;;;;;6.63;4.70;;;1.00;99.90;;;;;;5016724;28;20460;-75
2021/04/07 02:26:26;;;;;;;7.37;5.50;;;1.00;99.90;;;;;;4975715;28;20429;-76
2021/04/07 02:28:52;;;;;;;9.73;5.63;;;1.10;99.90;;;;;;4983441;28;20215;-76
2021/04/07 02:31:17;;;;;;;10.13;5.77;;;1.00;99.90;;;;;;4980201;28;20232;-77
2021/04/07 02:33:43;;;;;;;11.60;6.10;;;1.10;99.90;;;;;;4988355;28;20185;-75
2021/04/07 02:36:08;;;;;;;13.83;5.40;;;1.10;99.90;;;;;;4985709;28;20179;-77
2021/04/07 02:38:34;;;;;;;9.17;4.50;;;1.10;99.90;;;;;;4974815;28;20188;-76
2021/04/07 02:41:00;;;;;;;9.80;5.83;;;1.10;99.90;;;;;;4974240;28;20203;-76
2021/04/07 02:43:25;;;;;;;11.50;5.90;;;1.10;99.90;;;;;;4974493;28;20771;-75
2021/04/07 02:45:51;;;;;;;10.30;6.87;;;1.10;99.90;;;;;;5005636;28;20196;-75
2021/04/07 02:48:16;;;;;;;9.00;7.10;;;1.00;99.90;;;;;;4983142;28;20184;-77
2021/04/07 02:50:42;;;;;;;11.70;7.43;;;1.00;99.90;;;;;;4973772;28;20225;-76
2021/04/07 02:53:08;;;;;;;7.97;7.17;;;1.00;99.90;;;;;;4974324;28;20252;-75
2021/04/07 02:55:33;;;;;;;11.70;7.03;;;0.90;99.90;;;;;;4974074;28;20197;-75
2021/04/07 02:57:59;;;;;;;11.43;8.07;;;1.10;99.90;;;;;;4969577;28;20180;-76
2021/04/07 03:00:24;;;;;;;9.70;7.87;;;1.10;99.90;;;;;;4974075;28;20252;-75
2021/04/07 03:02:50;;;;;;;15.77;9.07;;;1.10;99.90;;;;;;4974286;28;20181;-76
2021/04/07 03:05:15;;;;;;;10.50;7.40;;;1.00;99.90;;;;;;4974675;28;20233;-75
2021/04/07 03:07:42;;;;;;;13.30;7.30;;;1.00;99.90;;;;;;4974417;28;20233;-77
2021/04/07 03:10:10;;;;;;;14.80;8.90;;;0.90;99.90;;;;;;4974509;28;20220;-75
2021/04/07 03:12:36;;;;;;;12.67;9.53;;;1.00;99.90;;;;;;4974249;28;20510;-77
2021/04/07 03:15:03;;;;;;;14.37;9.73;;;1.00;99.90;;;;;;4973007;28;20451;-75
2021/04/07 03:17:28;;;;;;;17.60;10.10;;;0.90;99.90;;;;;;4974206;28;20849;-77
2021/04/07 03:19:54;;;;;;;16.50;8.03;;;0.90;99.90;;;;;;4972552;28;20441;-76
2021/04/07 03:22:19;;;;;;;12.93;10.13;;;0.90;99.90;;;;;;4973792;28;20181;-76
2021/04/07 03:24:45;;;;;;;16.00;9.60;;;0.90;99.90;;;;;;4958379;28;20190;-77
2021/04/07 03:27:10;;;;;;;17.20;8.97;;;0.90;99.90;;;;;;4973765;28;20194;-76
2021/04/07 03:29:36;;;;;;;12.50;8.30;;;1.00;99.90;;;;;;4973296;28;20231;-75
2021/04/07 03:32:02;;;;;;;15.87;9.07;;;1.00;99.90;;;;;;4972617;28;20210;-77
2021/04/07 03:34:27;;;;;;;15.50;8.60;;;1.00;99.90;;;;;;4973947;28;20592;-77
2021/04/07 03:36:53;;;;;;;18.97;10.17;;;1.10;99.90;;;;;;4988217;28;20496;-77
2021/04/07 03:39:18;;;;;;;11.30;8.30;;;1.10;99.90;;;;;;5024223;28;20195;-75
2021/04/07 03:41:44;;;;;;;10.90;7.80;;;1.00;99.90;;;;;;4991769;28;20199;-77
2021/04/07 03:44:09;;;;;;;12.83;9.40;;;1.10;99.90;;;;;;4986156;28;20655;-77
2021/04/07 03:46:35;;;;;;;8.93;7.03;;;1.10;99.90;;;;;;5010147;28;20558;-77
2021/04/07 03:49:01;;;;;;;11.80;8.40;;;1.20;99.90;;;;;;4986387;28;20204;-76
2021/04/07 03:51:26;;;;;;;13.50;10.60;;;1.10;99.90;;;;;;4991446;28;20244;-77
2021/04/07 03:53:52;;;;;;;10.47;8.27;;;1.10;99.90;;;;;;4985178;28;20657;-77
2021/04/07 03:56:19;;;;;;;13.13;9.40;;;1.20;99.90;;;;;;4987026;28;20197;-77
2021/04/07 03:58:44;;;;;;;10.53;7.63;;;1.10;99.90;;;;;;4978316;28;20184;-77
2021/04/07 04:01:10;;;;;;;8.10;6.90;;;1.20;99.90;;;;;;5014002;28;20468;-77
2021/04/07 04:03:36;;;;;;;12.47;9.20;;;1.20;99.90;;;;;;4978952;28;20284;-76
2021/04/07 04:06:02;;;;;;;10.47;8.00;;;1.20;99.90;;;;;;4988370;28;20489;-77
2021/04/07 04:08:27;;;;;;;9.87;7.90;;;1.20;99.90;;;;;;5020211;28;20948;-77
2021/04/07 04:10:55;;;;;;;13.33;8.13;;;1.20;99.90;;;;;;4973692;28;20201;-75
2021/04/07 04:13:21;;;;;;;9.20;7.47;;;1.20;99.90;;;;;;5009062;28;20182;-77
2021/04/07 04:15:46;;;;;;;7.67;6.53;;;1.20;99.90;;;;;;4972946;28;20483;-77
2021/04/07 04:18:12;;;;;;;17.00;7.90;;;1.30;99.90;;;;;;4989331;28;20294;-77
2021/04/07 04:20:38;;;;;;;10.40;8.20;;;1.30;99.90;;;;;;4975289;28;20563;-76
2021/04/07 04:23:04;;;;;;;14.73;9.73;;;1.20;99.90;;;;;;4986704;28;20192;-77
2021/04/07 04:25:29;;;;;;;11.00;7.60;;;1.20;99.90;;;;;;4983779;28;20194;-77
2021/04/07 04:27:55;;;;;;;13.40;8.53;;;1.20;99.90;;;;;;4981846;28;21097;-76
2021/04/07 04:30:22;;;;;;;19.37;9.40;;;1.20;99.90;;;;;;5008543;28;20747;-77
2021/04/07 04:32:49;;;;;;;10.00;9.00;;;1.10;99.90;;;;;;4971917;28;20182;-74
2021/04/07 04:35:15;;;;;;;12.03;8.70;;;1.10;99.90;;;;;;4992877;28;21030;-77
2021/04/07 04:37:42;;;;;;;10.87;8.17;;;1.00;99.90;;;;;;4972936;28;20436;-77
2021/04/07 04:40:10;;;;;;;16.80;10.23;;;1.10;99.90;;;;;;4982831;28;20461;-77
2021/04/07 04:42:35;;;;;;;16.97;10.97;;;1.10;99.90;;;;;;4991553;28;20515;-77
2021/04/07 04:45:02;;;;;;;15.33;10.17;;;1.00;99.90;;;;;;4991670;28;20908;-77
2021/04/07 04:47:27;;;;;;;20.67;10.10;;;1.10;99.90;;;;;;4980166;28;20783;-77
2021/04/07 04:49:53;;;;;;;14.50;9.60;;;1.20;99.90;;;;;;4989604;28;20475;-77
2021/04/07 04:52:20;;;;;;;16.37;10.57;;;1.10;99.90;;;;;;4985466;28;20190;-77
2021/04/07 04:54:45;;;;;;;16.67;10.50;;;1.10;99.90;;;;;;4986206;28;20435;-75
2021/04/07 04:57:11;;;;;;;12.27;10.97;;;1.10;99.90;;;;;;5005092;28;20788;-76
2021/04/07 04:59:37;;;;;;;17.50;9.47;;;1.10;99.90;;;;;;4973244;28;20189;-76
2021/04/07 05:02:02;;;;;;;19.97;10.70;;;1.10;99.90;;;;;;4981994;28;20177;-77
2021/04/07 05:04:28;;;;;;;18.37;11.50;;;1.00;99.90;;;;;;4988439;28;20269;-77
2021/04/07 05:06:53;;;;;;;15.73;11.90;;;1.10;99.90;;;;;;4973276;28;20184;-77
2021/04/07 05:09:19;;;;;;;15.17;12.00;;;1.10;99.90;;;;;;4972752;28;20203;-77
2021/04/07 05:11:44;;;;;;;16.60;11.50;;;1.10;99.90;;;;;;4972773;28;20705;-77
2021/04/07 05:14:10;;;;;;;17.40;10.90;;;1.10;99.90;;;;;;4981540;28;20182;-77
2021/04/07 05:16:36;;;;;;;12.47;11.23;;;1.20;99.90;;;;;;4982241;28;20185;-76
2021/04/07 05:19:01;;;;;;;13.80;11.23;;;1.10;99.90;;;;;;4971762;28;20272;-75
2021/04/07 05:21:27;;;;;;;21.07;13.20;;;1.10;99.90;;;;;;4982297;28;20206;-76
2021/04/07 05:23:52;;;;;;;17.80;11.63;;;1.10;99.90;;;;;;4977997;28;20221;-75
2021/04/07 05:26:18;;;;;;;10.83;8.97;;;1.10;99.90;;;;;;4976385;28;20185;-76
2021/04/07 05:28:45;;;;;;;16.60;7.67;;;1.10;99.90;;;;;;4978641;28;20231;-75
2021/04/07 05:31:12;;;;;;;9.50;7.73;;;1.20;99.90;;;;;;4985998;28;20602;-75
2021/04/07 05:33:39;;;;;;;10.20;9.10;;;1.20;99.90;;;;;;4986413;28;20790;-75
2021/04/07 05:36:07;;;;;;;12.23;7.97;;;1.20;99.90;;;;;;4995505;28;20415;-75
2021/04/07 05:38:34;;;;;;;9.30;7.40;;;1.20;99.90;;;;;;4994499;28;20961;-75
2021/04/07 05:41:00;;;;;;;14.57;7.73;;;1.20;99.90;;;;;;4984567;28;20479;-75
2021/04/07 05:43:27;;;;;;;11.97;8.70;;;1.20;99.90;;;;;;4991177;28;20432;-75
2021/04/07 05:45:53;;;;;;;8.80;7.87;;;1.30;99.90;;;;;;4990722;28;20861;-75
2021/04/07 05:48:19;;;;;;;10.73;7.90;;;1.20;99.90;;;;;;4991754;28;20439;-75
2021/04/07 05:50:48;;;;;;;15.33;8.33;;;1.20;99.90;;;;;;4983207;28;20694;-76
2021/04/07 05:53:14;;;;;;;9.77;8.03;;;1.20;99.90;;;;;;4979210;28;20433;-75
2021/04/07 05:55:46;;;;;;;13.33;10.00;;;1.30;99.90;;;;;;4974411;28;20468;-76
2021/04/07 05:58:12;;;;;;;14.63;9.03;;;1.40;99.90;;;;;;4985186;28;20433;-75
2021/04/07 06:00:39;;;;;;;14.60;9.47;;;1.40;99.90;;;;;;4984560;28;20452;-76
2021/04/07 06:03:06;;;;;;;12.20;9.00;;;1.50;99.90;;;;;;4987403;28;20852;-76
2021/04/07 06:05:33;;;;;;;12.23;9.57;;;1.50;99.90;;;;;;4985909;28;20845;-76
2021/04/07 06:07:59;;;;;;;20.87;12.50;;;1.50;99.90;;;;;;4980184;28;20521;-76
2021/04/07 06:10:26;;;;;;;14.57;11.43;;;1.50;99.90;;;;;;4994509;28;21203;-76
2021/04/07 06:12:55;;;;;;;16.67;11.80;;;1.40;99.90;;;;;;4974512;28;20844;-76
2021/04/07 06:15:22;;;;;;;14.90;11.70;;;1.40;99.90;;;;;;4977416;28;20462;-75
2021/04/07 06:17:57;;;;;;;23.50;10.63;;;1.30;99.90;;;;;;4987286;28;20460;-75
2021/04/07 06:20:31;;;;;;;19.20;13.03;;;1.40;99.90;;;;;;4983915;28;20465;-75
2021/04/07 06:22:57;;;;;;;18.70;12.90;;;1.50;99.90;;;;;;5014527;28;20783;-75
2021/04/07 06:25:24;;;;;;;19.90;13.53;;;1.30;99.90;;;;;;4980461;28;20436;-77
2021/04/07 06:27:57;;;;;;;18.50;10.53;;;1.30;99.90;;;;;;4980135;28;20432;-77
2021/04/07 06:30:40;;;;;;;17.53;10.77;;;1.30;99.90;;;;;;4994010;28;20971;-77
2021/04/07 06:33:08;;;;;;;18.90;12.60;;;1.30;99.90;;;;;;4985980;28;20522;-75
2021/04/07 06:35:33;;;;;;;18.63;12.27;;;1.20;99.90;;;;;;4993433;28;20435;-76
2021/04/07 06:37:59;;;;;;;20.57;15.00;;;1.20;99.90;;;;;;5013444;28;20427;-75
2021/04/07 06:40:26;;;;;;;22.87;10.93;;;1.30;99.90;;;;;;4991542;28;20601;-74
2021/04/07 06:42:52;;;;;;;17.03;11.90;;;1.30;99.90;;;;;;4991734;28;20433;-76
2021/04/07 06:45:18;;;;;;;14.03;10.77;;;1.30;99.90;;;;;;4986299;28;20432;-75
2021/04/07 06:47:43;;;;;;;13.57;10.30;;;1.30;99.90;;;;;;4998706;28;20193;-75
2021/04/07 06:50:09;;;;;;;16.30;10.80;;;1.30;99.90;;;;;;4973591;28;20747;-75
2021/04/07 06:52:36;;;;;;;17.10;11.37;;;1.20;99.90;;;;;;4974157;28;20178;-75
2021/04/07 06:55:01;;;;;;;14.80;10.53;;;1.20;99.90;;;;;;4980998;28;20430;-75
2021/04/07 06:57:29;;;;;;;12.93;9.43;;;1.30;99.90;;;;;;4973519;28;20495;-75
2021/04/07 06:59:55;;;;;;;15.07;9.60;;;1.30;99.90;;;;;;4974240;28;20201;-75
2021/04/07 07:02:20;;;;;;;9.63;7.70;;;1.30;99.90;;;;;;5019964;28;20792;-75
2021/04/07 07:04:46;;;;;;;12.73;8.10;;;1.30;99.90;;;;;;4980378;28;20182;-75
2021/04/07 07:07:11;;;;;;;11.13;7.57;;;1.30;99.90;;;;;;4976219;28;20181;-75
2021/04/07 07:09:37;;;;;;;12.63;7.80;;;1.30;99.90;;;;;;4976951;28;20204;-75
2021/04/07 07:12:04;;;;;;;14.63;8.53;;;1.30;99.90;;;;;;4979394;28;20176;-75
2021/04/07 07:14:31;;;;;;;12.10;8.27;;;1.30;99.90;;;;;;4988356;28;20199;-74
2021/04/07 07:16:56;;;;;;;9.53;7.27;;;1.30;99.90;;;;;;4972675;28;20436;-75
2021/04/07 07:19:28;;;;;;;9.60;7.57;;;1.30;99.90;;;;;;4983327;28;20904;-76
2021/04/07 07:21:56;;;;;;;13.97;6.83;;;1.40;99.90;;;;;;5008748;28;20232;-76
2021/04/07 07:24:39;;;;;;;14.50;8.00;;;1.40;99.90;;;;;;4973641;28;20530;-74
2021/04/07 07:27:07;;;;;;;11.07;7.83;;;1.40;99.90;;;;;;4972663;28;20988;-75
2021/04/07 07:29:35;;;;;;;10.57;7.10;;;1.40;99.90;;;;;;4973180;28;20834;-74
2021/04/07 07:32:02;;;;;;;10.83;6.60;;;1.40;99.90;;;;;;4973617;28;20760;-75
2021/04/07 07:34:28;;;;;;;7.13;6.43;;;1.40;99.90;;;;;;4973301;28;20470;-75
2021/04/07 07:36:55;;;;;;;13.53;7.83;;;1.60;99.90;;;;;;4973930;28;20949;-75
2021/04/07 07:39:30;;;;;;;9.37;7.00;;;1.60;99.90;;;;;;4972938;28;20434;-74
2021/04/07 07:42:01;;;;;;;11.00;5.30;;;1.50;99.90;;;;;;4975733;28;20431;-74
2021/04/07 07:44:28;;;;;;;14.53;5.90;;;1.40;99.90;;;;;;4973158;28;20488;-75
2021/04/07 07:47:12;;;;;;;12.20;5.93;;;1.40;99.90;;;;;;4976238;28;20502;-74
2021/04/07 07:49:38;;;;;;;13.40;5.47;;;1.40;99.90;;;;;;4980947;28;20460;-74
2021/04/07 07:52:04;;;;;;;9.73;5.13;;;1.40;99.90;;;;;;4979331;28;20427;-75
2021/04/07 07:54:29;;;;;;;8.10;5.20;;;1.50;99.90;;;;;;4973565;28;20177;-75
2021/04/07 07:56:56;;;;;;;11.30;5.43;;;1.40;99.90;;;;;;4977237;28;20185;-76
2021/04/07 07:59:28;;;;;;;10.83;5.27;;;1.50;99.90;;;;;;4991447;28;20217;-75
2021/04/07 08:01:54;;;;;;;6.60;4.60;;;1.50;99.90;;;;;;5010121;28;20456;-75
2021/04/07 08:04:20;;;;;;;6.73;5.13;;;1.60;99.90;;;;;;4973411;28;20551;-76
2021/04/07 08:06:46;;;;;;;8.83;5.80;;;1.60;99.90;;;;;;4970279;28;20194;-76
2021/04/07 08:09:12;;;;;;;11.50;6.63;;;1.80;99.90;;;;;;4976521;28;20972;-77
2021/04/07 08:11:43;;;;;;;11.67;6.60;;;1.80;99.90;;;;;;4968712;28;20453;-75
2021/04/07 08:14:14;;;;;;;7.17;6.40;;;1.90;99.90;;;;;;4972376;28;20929;-76
2021/04/07 08:16:46;;;;;;;12.07;6.67;;;2.00;99.90;;;;;;4981907;28;20522;-76
2021/04/07 08:19:13;;;;;;;10.60;6.40;;;2.30;99.90;;;;;;4973987;28;20522;-77
2021/04/07 08:21:43;;;;;;;5.60;4.87;;;2.40;99.90;;;;;;4979546;28;20461;-76
2021/04/07 08:24:11;;;;;;;8.20;5.37;;;2.40;99.90;;;;;;4978170;28;20844;-76
2021/04/07 08:26:39;;;;;;;7.27;6.17;;;2.50;99.90;;;;;;4973575;28;20483;-77
2021/04/07 08:29:06;;;;;;;12.83;6.47;;;2.40;99.90;;;;;;4970221;28;20503;-75
2021/04/07 08:31:32;;;;;;;6.73;5.50;;;2.20;99.90;;;;;;4983433;28;21036;-76
2021/04/07 08:34:02;;;;;;;9.40;4.33;;;2.40;99.90;;;;;;4972445;28;20427;-76
2021/04/07 08:36:30;;;;;;;8.90;5.43;;;2.30;99.90;;;;;;4972884;28;20422;-75
2021/04/07 08:39:00;;;;;;;6.87;4.53;;;2.00;99.90;;;;;;4972786;28;20432;-76
2021/04/07 08:41:27;;;;;;;9.67;5.43;;;2.20;99.90;;;;;;4968477;28;20438;-77
2021/04/07 08:43:53;;;;;;;8.43;5.27;;;2.10;99.90;;;;;;4972701;28;20428;-76
2021/04/07 08:46:23;;;;;;;7.13;6.43;;;2.10;99.90;;;;;;4972670;28;20429;-76
2021/04/07 08:48:49;;;;;;;6.40;5.57;;;2.00;99.90;;;;;;5003779;28;20461;-75
2021/04/07 08:51:18;;;;;;;6.80;6.10;;;1.90;99.90;;;;;;4971471;28;20444;-76
2021/04/07 08:53:49;;;;;;;6.80;5.90;;;1.90;99.90;;;;;;4967936;28;20434;-76
2021/04/07 08:56:17;;;;;;;6.70;5.47;;;2.00;99.90;;;;;;4976111;28;20439;-76
2021/04/07 08:59:03;;;;;;;7.77;7.00;;;2.00;99.90;;;;;;4976330;28;20502;-75
2021/04/07 09:01:35;;;;;;;9.30;6.60;;;2.00;99.90;;;;;;4971756;28;20449;-76
2021/04/07 09:04:10;;;;;;;8.37;7.43;;;2.10;99.90;;;;;;4960545;28;20421;-76
2021/04/07 09:06:38;;;;;;;7.73;7.03;;;2.30;99.90;;;;;;4976287;28;20462;-76
2021/04/07 09:09:05;;;;;;;6.67;6.07;;;2.40;99.90;;;;;;4976215;28;20887;-76
2021/04/07 09:11:34;;;;;;;7.17;5.73;;;2.50;99.90;;;;;;4976036;28;20440;-76
2021/04/07 09:14:03;;;;;;;5.30;4.90;;;2.60;99.90;;;;;;4976449;28;20947;-76
2021/04/07 09:16:43;;;;;;;6.73;5.90;;;2.30;99.90;;;;;;4976103;28;20515;-76
2021/04/07 09:19:20;;;;;;;7.40;6.70;;;2.40;99.90;;;;;;4976084;28;20446;-76
2021/04/07 09:22:08;;;;;;;8.50;7.23;;;2.30;99.90;;;;;;4975898;28;20560;-76
2021/04/07 09:24:40;;;;;;;6.40;5.80;;;2.40;99.90;;;;;;4991200;28;20421;-76
2021/04/07 09:27:08;;;;;;;6.27;5.67;;;2.60;99.90;;;;;;4976073;28;20512;-76
2021/04/07 09:29:39;;;;;;;4.77;4.37;;;2.70;99.90;;;;;;4975498;28;20452;-76
2021/04/07 09:32:15;;;;;;;5.80;5.30;;;2.50;99.90;;;;;;4975832;28;20778;-76
2021/04/07 09:34:41;;;;;;;4.53;3.90;;;2.70;99.90;;;;;;4975855;28;20421;-76
2021/04/07 09:37:08;;;;;;;4.50;3.80;;;2.60;99.90;;;;;;4975781;28;20567;-76
2021/04/07 09:39:37;;;;;;;4.87;3.37;;;2.70;99.90;;;;;;4975397;28;20659;-76
2021/04/07 09:42:02;;;;;;;4.10;3.80;;;2.60;99.90;;;;;;4973400;28;20453;-76
2021/04/07 09:44:28;;;;;;;7.30;5.20;;;2.70;99.90;;;;;;4983184;28;20931;-78
2021/04/07 09:46:57;;;;;;;5.07;3.70;;;2.60;99.90;;;;;;4985052;28;20188;-80
2021/04/07 09:49:24;;;;;;;4.10;3.60;;;2.70;99.90;;;;;;4985021;28;20460;-80
2021/04/07 09:51:50;;;;;;;5.27;3.60;;;2.50;99.90;;;;;;4983141;28;20437;-78
2021/04/07 09:54:26;;;;;;;4.13;3.53;;;2.50;99.90;;;;;;4986963;28;20424;-78
2021/04/07 09:57:13;;;;;;;5.70;3.70;;;2.60;99.90;;;;;;4986697;28;20450;-78
2021/04/07 09:59:50;;;;;;;4.13;3.40;;;2.30;99.90;;;;;;4988940;28;20421;-78
2021/04/07 10:02:26;;;;;;;6.90;3.53;;;2.30;99.90;;;;;;5004045;28;20413;-78
2021/04/07 10:04:53;;;;;;;4.60;4.20;;;2.30;99.90;;;;;;4976679;28;21099;-78
2021/04/07 10:07:21;;;;;;;6.20;3.40;;;2.20;99.90;;;;;;4975099;28;20416;-79
2021/04/07 10:09:48;;;;;;;4.23;3.60;;;2.20;99.90;;;;;;4989158;28;20487;-78
2021/04/07 10:12:15;;;;;;;4.43;4.03;;;2.10;99.90;;;;;;5017822;28;20417;-80
2021/04/07 10:14:59;;;;;;;4.20;3.53;;;2.20;99.90;;;;;;4988564;28;20435;-79
2021/04/07 10:17:26;;;;;;;5.30;4.80;;;2.30;99.90;;;;;;4987981;28;20474;-78
2021/04/07 10:19:53;;;;;;;7.73;4.13;;;2.40;99.90;;;;;;4976408;28;20489;-80
2021/04/07 10:22:23;;;;;;;4.03;3.67;;;2.40;99.90;;;;;;4981991;28;20473;-78
2021/04/07 10:24:50;;;;;;;4.00;3.70;;;2.60;99.90;;;;;;4981422;28;20421;-79
2021/04/07 10:27:23;;;;;;;5.40;4.10;;;2.80;99.90;;;;;;4959387;28;20912;-79
2021/04/07 10:30:00;;;;;;;5.73;4.00;;;2.90;99.90;;;;;;4956079;28;20548;-80
2021/04/07 10:32:27;;;;;;;4.33;3.70;;;3.00;99.90;;;;;;4956238;28;20406;-79
2021/04/07 10:34:58;;;;;;;3.77;3.47;;;3.30;99.90;;;;;;4956175;28;20412;-78
2021/04/07 10:37:24;;;;;;;5.40;3.83;;;3.40;99.90;;;;;;4956354;28;20406;-78
2021/04/07 10:39:49;;;;;;;4.33;3.90;;;3.30;99.90;;;;;;4955862;29;20445;-79
2021/04/07 10:42:20;;;;;;;7.13;4.13;;;3.30;99.90;;;;;;4961084;28;20260;-79
2021/04/07 10:44:57;;;;;;;6.83;4.37;;;2.80;99.90;;;;;;4977489;28;20213;-79
2021/04/07 10:47:23;;;;;;;9.53;4.93;;;2.90;99.90;;;;;;4958807;29;20476;-79
2021/04/07 10:49:56;;;;;;;4.77;4.37;;;3.00;99.90;;;;;;4958765;28;20460;-79
2021/04/07 10:52:33;;;;;;;6.87;5.23;;;3.10;99.90;;;;;;4971141;28;20189;-79
2021/04/07 10:54:59;;;;;;;6.93;5.43;;;3.10;99.90;;;;;;4955933;28;20808;-78
2021/04/07 10:57:39;;;;;;;13.40;10.17;;;2.90;99.90;;;;;;4956444;28;20468;-78
2021/04/07 11:00:12;;;;;;;9.30;6.07;;;2.90;99.90;;;;;;4959614;28;20432;-79
2021/04/07 11:02:47;;;;;;;8.80;7.50;;;3.00;99.90;;;;;;4976028;28;20517;-78
2021/04/07 11:05:18;;;;;;;11.07;6.70;;;3.10;99.90;;;;;;4956237;29;20412;-78
2021/04/07 11:07:43;;;;;;;11.20;7.90;;;3.20;99.90;;;;;;4970976;28;20422;-78
2021/04/07 11:10:12;;;;;;;10.20;7.07;;;3.30;99.90;;;;;;4956455;28;20472;-78
2021/04/07 11:12:38;;;;;;;11.30;7.60;;;3.40;99.90;;;;;;4971524;28;20178;-78
2021/04/07 11:15:09;;;;;;;13.40;7.40;;;3.50;99.90;;;;;;4956141;28;20409;-78
2021/04/07 11:17:36;;;;;;;13.20;7.57;;;3.60;99.90;;;;;;4955608;28;20437;-78
2021/04/07 11:20:02;;;;;;;15.50;8.40;;;3.70;99.90;;;;;;4970694;28;20540;-79
2021/04/07 11:22:27;;;;;;;17.17;8.27;;;3.80;99.90;;;;;;4956057;28;20811;-78
2021/04/07 11:24:55;;;;;;;15.17;8.87;;;3.80;99.90;;;;;;4956282;28;20416;-78
2021/04/07 11:27:20;;;;;;;15.60;8.00;;;3.60;99.90;;;;;;4955756;28;20169;-79
2021/04/07 11:29:46;;;;;;;14.27;7.63;;;3.70;99.90;;;;;;4955421;29;20515;-78
2021/04/07 11:32:13;;;;;;;15.13;7.70;;;3.70;99.90;;;;;;4956079;29;20166;-78
2021/04/07 11:37:33;;;;;;;9.67;7.20;;;3.80;99.90;;;;;;4956964;28;20410;-80
2021/04/07 11:40:03;;;;;;;15.03;8.23;;;3.90;99.90;;;;;;4956522;28;20495;-81
2021/04/07 11:42:33;;;;;;;14.23;7.90;;;3.90;99.90;;;;;;4971490;28;20480;-81
2021/04/07 11:44:58;;;;;;;12.90;7.73;;;4.00;99.90;;;;;;4956451;29;20417;-80
2021/04/07 11:47:24;;;;;;;9.63;8.60;;;4.00;99.90;;;;;;4957360;28;20768;-81
2021/04/07 11:49:49;;;;;;;23.10;9.40;;;4.00;99.90;;;;;;4971800;28;20632;-80
2021/04/07 11:52:15;;;;;;;11.80;7.53;;;4.20;99.90;;;;;;4972127;28;20237;-80
2021/04/07 11:54:41;;;;;;;13.87;8.07;;;4.30;99.90;;;;;;4956774;28;20254;-81
2021/04/07 11:57:07;;;;;;;11.73;7.50;;;4.40;99.90;;;;;;4971914;28;20190;-81
2021/04/07 11:59:33;;;;;;;10.60;7.20;;;4.50;99.90;;;;;;4955999;28;20414;-79
2021/04/07 12:02:00;;;;;;;16.93;7.63;;;4.60;99.90;;;;;;4971320;28;20763;-80
2021/04/07 12:04:28;;;;;;;16.27;7.00;;;4.70;99.90;;;;;;4970865;28;20656;-78
2021/04/07 12:06:54;;;;;;;19.43;7.30;;;4.90;99.90;;;;;;4955394;29;20923;-80
2021/04/07 12:09:20;;;;;;;14.30;6.17;;;5.10;99.90;;;;;;4954821;29;20802;-79
2021/04/07 12:11:46;;;;;;;11.67;6.27;;;5.20;99.90;;;;;;4970104;28;20515;-79
2021/04/07 12:14:12;;;;;;;16.63;7.40;;;5.10;99.90;;;;;;4954981;28;20166;-79
2021/04/07 12:16:37;;;;;;;11.67;6.70;;;5.30;99.90;;;;;;4956653;28;20408;-78
2021/04/07 12:19:05;;;;;;;15.00;5.80;;;5.30;99.90;;;;;;4958058;28;20256;-80
2021/04/07 12:21:31;;;;;;;17.30;7.63;;;5.30;99.90;;;;;;4956948;28;20604;-80
2021/04/07 12:23:57;;;;;;;16.23;7.43;;;5.30;99.90;;;;;;4971838;28;20414;-81
2021/04/07 12:26:22;;;;;;;10.60;6.63;;;5.50;99.90;;;;;;4971587;28;20420;-80
2021/04/07 12:28:48;;;;;;;14.80;6.80;;;5.60;99.90;;;;;;4956486;29;20170;-80
2021/04/07 12:31:16;;;;;;;15.00;6.67;;;5.70;99.90;;;;;;4971772;28;20210;-79
2021/04/07 12:33:49;;;;;;;19.67;7.13;;;5.80;99.90;;;;;;4955602;28;20526;-78
2021/04/07 12:36:14;;;;;;;11.60;6.70;;;5.70;99.90;;;;;;4955081;29;20456;-78
2021/04/07 12:38:40;;;;;;;16.10;6.33;;;5.40;99.90;;;;;;4969593;28;20916;-78
2021/04/07 12:41:22;;;;;;;14.40;7.27;;;5.50;99.90;;;;;;4954404;29;20281;-78
2021/04/07 12:43:47;;;;;;;20.47;7.57;;;5.30;99.90;;;;;;4954920;28;20448;-78
2021/04/07 12:46:14;;;;;;;18.83;8.37;;;5.20;99.90;;;;;;4954910;28;20777;-78
2021/04/07 12:48:39;;;;;;;12.00;7.17;;;5.20;99.90;;;;;;4954838;29;20532;-78
2021/04/07 12:51:05;;;;;;;21.47;8.40;;;5.20;99.90;;;;;;4954432;28;20430;-78
2021/04/07 12:53:30;;;;;;;16.50;7.20;;;5.20;99.90;;;;;;4954972;28;20202;-78
2021/04/07 12:55:56;;;;;;;17.27;5.60;;;5.30;99.90;;;;;;4954766;28;20178;-78